sensor_id;sensor_type;location;lat;lon;timestamp;pressure;altitude;pressure_sealevel;temperature;humidity
5146;BME280;2591;48.144;15.152;2023-06-22T00:01:22;74773.66;;;-144.65;86.93
5146;BME280;2591;48.144;15.152;2023-06-22T00:03:51;74781.81;;;-144.65;89.41
5146;BME280;2591;48.144;15.152;2023-06-22T00:06:20;74796.06;;;-144.65;88.59
5146;BME280;2591;48.144;15.152;2023-06-22T00:08:47;74794.03;;;-144.65;89.28
5146;BME280;2591;48.144;15.152;2023-06-22T00:11:15;74806.25;;;-144.65;90.02
5146;BME280;2591;48.144;15.152;2023-06-22T00:13:44;74800.16;;;-144.65;90.77
5146;BME280;2591;48.144;15.152;2023-06-22T00:16:12;74806.25;;;-144.65;91.01
5146;BME280;2591;48.144;15.152;2023-06-22T00:18:40;74810.34;;;-144.65;91.47
5146;BME280;2591;48.144;15.152;2023-06-22T00:21:15;74818.47;;;-144.65;91.28
5146;BME280;2591;48.144;15.152;2023-06-22T00:23:42;74818.47;;;-144.65;92.53
5146;BME280;2591;48.144;15.152;2023-06-22T00:26:10;74826.63;;;-144.65;93.94
5146;BME280;2591;48.144;15.152;2023-06-22T00:28:39;74834.78;;;-144.65;93.94
5146;BME280;2591;48.144;15.152;2023-06-22T00:31:07;74844.97;;;-144.65;94.75
5146;BME280;2591;48.144;15.152;2023-06-22T00:33:35;74855.16;;;-144.65;95.88
5146;BME280;2591;48.144;15.152;2023-06-22T00:36:03;74859.25;;;-144.65;95.56
5146;BME280;2591;48.144;15.152;2023-06-22T00:38:33;74867.41;;;-144.65;95.26
5146;BME280;2591;48.144;15.152;2023-06-22T00:41:00;74867.41;;;-144.65;95.24
5146;BME280;2591;48.144;15.152;2023-06-22T00:43:28;74875.56;;;-144.65;96.08
5146;BME280;2591;48.144;15.152;2023-06-22T00:45:56;74881.66;;;-144.65;97.73
5146;BME280;2591;48.144;15.152;2023-06-22T00:48:25;74887.78;;;-144.65;98.93
5146;BME280;2591;48.144;15.152;2023-06-22T00:50:53;74891.84;;;-144.65;98.99
5146;BME280;2591;48.144;15.152;2023-06-22T00:53:22;74887.78;;;-144.65;99.51
5146;BME280;2591;48.144;15.152;2023-06-22T00:55:51;74889.81;;;-144.65;99.17
5146;BME280;2591;48.144;15.152;2023-06-22T00:58:20;74885.75;;;-144.65;99.02
5146;BME280;2591;48.144;15.152;2023-06-22T01:00:49;74889.81;;;-144.65;99.37
5146;BME280;2591;48.144;15.152;2023-06-22T01:03:16;74887.78;;;-144.65;99.68
5146;BME280;2591;48.144;15.152;2023-06-22T01:05:46;74887.78;;;-144.65;100.00
5146;BME280;2591;48.144;15.152;2023-06-22T01:08:26;74897.97;;;-144.65;100.00
5146;BME280;2591;48.144;15.152;2023-06-22T01:11:02;74908.16;;;-144.65;100.00
5146;BME280;2591;48.144;15.152;2023-06-22T01:13:45;74918.34;;;-144.65;100.00
5146;BME280;2591;48.144;15.152;2023-06-22T01:16:19;74924.47;;;-144.65;100.00
5146;BME280;2591;48.144;15.152;2023-06-22T01:18:50;74924.47;;;-144.65;100.00
5146;BME280;2591;48.144;15.152;2023-06-22T01:21:20;74928.53;;;-144.65;100.00
5146;BME280;2591;48.144;15.152;2023-06-22T01:23:56;74932.63;;;-144.65;100.00
5146;BME280;2591;48.144;15.152;2023-06-22T01:26:38;74932.63;;;-144.65;100.00
5146;BME280;2591;48.144;15.152;2023-06-22T01:29:12;74938.72;;;-144.65;100.00
5146;BME280;2591;48.144;15.152;2023-06-22T01:31:42;74944.84;;;-144.65;100.00
5146;BME280;2591;48.144;15.152;2023-06-22T01:34:12;74950.97;;;-144.65;100.00
5146;BME280;2591;48.144;15.152;2023-06-22T01:36:41;74948.91;;;-144.65;100.00
5146;BME280;2591;48.144;15.152;2023-06-22T01:39:11;74955.03;;;-144.65;100.00
5146;BME280;2591;48.144;15.152;2023-06-22T01:41:41;74961.16;;;-144.65;100.00
5146;BME280;2591;48.144;15.152;2023-06-22T01:44:12;74965.22;;;-144.65;100.00
5146;BME280;2591;48.144;15.152;2023-06-22T01:46:40;74965.22;;;-144.65;100.00
5146;BME280;2591;48.144;15.152;2023-06-22T01:49:09;74975.41;;;-144.65;100.00
5146;BME280;2591;48.144;15.152;2023-06-22T01:51:37;74975.41;;;-144.65;100.00
5146;BME280;2591;48.144;15.152;2023-06-22T01:54:06;74971.34;;;-144.65;100.00
5146;BME280;2591;48.144;15.152;2023-06-22T01:56:34;74973.38;;;-144.65;100.00
5146;BME280;2591;48.144;15.152;2023-06-22T01:59:07;74965.22;;;-144.65;100.00
5146;BME280;2591;48.144;15.152;2023-06-22T02:01:42;74973.38;;;-144.65;100.00
5146;BME280;2591;48.144;15.152;2023-06-22T02:04:13;74977.47;;;-144.65;100.00
5146;BME280;2591;48.144;15.152;2023-06-22T02:06:45;74979.50;;;-144.65;100.00
5146;BME280;2591;48.144;15.152;2023-06-22T02:09:17;74985.59;;;-144.65;100.00
5146;BME280;2591;48.144;15.152;2023-06-22T02:11:47;74985.59;;;-144.65;100.00
5146;BME280;2591;48.144;15.152;2023-06-22T02:14:18;74987.66;;;-144.65;100.00
5146;BME280;2591;48.144;15.152;2023-06-22T02:16:49;74991.72;;;-144.65;100.00
5146;BME280;2591;48.144;15.152;2023-06-22T02:19:22;74993.75;;;-144.65;100.00
5146;BME280;2591;48.144;15.152;2023-06-22T02:21:51;74995.81;;;-144.65;100.00
5146;BME280;2591;48.144;15.152;2023-06-22T02:24:19;75001.91;;;-144.65;100.00
5146;BME280;2591;48.144;15.152;2023-06-22T02:26:50;75006.00;;;-144.65;100.00
5146;BME280;2591;48.144;15.152;2023-06-22T02:29:18;75010.06;;;-144.65;100.00
5146;BME280;2591;48.144;15.152;2023-06-22T02:31:47;75003.94;;;-144.65;100.00
5146;BME280;2591;48.144;15.152;2023-06-22T02:34:15;74997.84;;;-144.65;100.00
5146;BME280;2591;48.144;15.152;2023-06-22T02:36:45;75006.00;;;-144.65;100.00
5146;BME280;2591;48.144;15.152;2023-06-22T02:39:19;75001.91;;;-144.65;100.00
5146;BME280;2591;48.144;15.152;2023-06-22T02:41:48;75010.06;;;-144.65;100.00
5146;BME280;2591;48.144;15.152;2023-06-22T02:44:16;75018.22;;;-144.65;100.00
5146;BME280;2591;48.144;15.152;2023-06-22T02:46:45;75018.22;;;-144.65;100.00
5146;BME280;2591;48.144;15.152;2023-06-22T02:49:15;75018.22;;;-144.65;100.00
5146;BME280;2591;48.144;15.152;2023-06-22T02:51:45;75022.28;;;-144.65;100.00
5146;BME280;2591;48.144;15.152;2023-06-22T02:54:14;75022.28;;;-144.65;100.00
5146;BME280;2591;48.144;15.152;2023-06-22T02:56:43;75018.22;;;-144.65;100.00
5146;BME280;2591;48.144;15.152;2023-06-22T02:59:11;75006.00;;;-144.65;100.00
5146;BME280;2591;48.144;15.152;2023-06-22T03:01:39;75010.06;;;-144.65;100.00
5146;BME280;2591;48.144;15.152;2023-06-22T03:04:08;75006.00;;;-144.65;100.00
5146;BME280;2591;48.144;15.152;2023-06-22T03:06:37;75008.03;;;-144.65;100.00
5146;BME280;2591;48.144;15.152;2023-06-22T03:09:07;75006.00;;;-144.65;100.00
5146;BME280;2591;48.144;15.152;2023-06-22T03:11:35;75010.06;;;-144.65;100.00
5146;BME280;2591;48.144;15.152;2023-06-22T03:14:03;75018.22;;;-144.65;100.00
5146;BME280;2591;48.144;15.152;2023-06-22T03:16:31;75014.13;;;-144.65;100.00
5146;BME280;2591;48.144;15.152;2023-06-22T03:18:59;75010.06;;;-144.65;100.00
5146;BME280;2591;48.144;15.152;2023-06-22T03:21:28;75003.94;;;-144.65;100.00
5146;BME280;2591;48.144;15.152;2023-06-22T03:23:58;75001.91;;;-144.65;100.00
5146;BME280;2591;48.144;15.152;2023-06-22T03:26:25;75012.09;;;-144.65;100.00
5146;BME280;2591;48.144;15.152;2023-06-22T03:28:54;75014.13;;;-144.65;100.00
5146;BME280;2591;48.144;15.152;2023-06-22T03:31:22;75010.06;;;-144.65;100.00
5146;BME280;2591;48.144;15.152;2023-06-22T03:33:50;75016.19;;;-144.65;100.00
5146;BME280;2591;48.144;15.152;2023-06-22T03:36:18;75014.13;;;-144.65;100.00
5146;BME280;2591;48.144;15.152;2023-06-22T03:38:47;75012.09;;;-144.65;100.00
5146;BME280;2591;48.144;15.152;2023-06-22T03:41:17;75010.06;;;-144.65;100.00
5146;BME280;2591;48.144;15.152;2023-06-22T03:43:44;75016.19;;;-144.65;100.00
5146;BME280;2591;48.144;15.152;2023-06-22T03:46:12;75010.06;;;-144.65;100.00
5146;BME280;2591;48.144;15.152;2023-06-22T03:48:40;75012.09;;;-144.65;100.00
5146;BME280;2591;48.144;15.152;2023-06-22T03:51:08;75014.13;;;-144.65;100.00
5146;BME280;2591;48.144;15.152;2023-06-22T03:53:36;75014.13;;;-144.65;100.00
5146;BME280;2591;48.144;15.152;2023-06-22T03:56:04;75016.19;;;-144.65;100.00
5146;BME280;2591;48.144;15.152;2023-06-22T03:58:33;75001.91;;;-144.65;100.00
5146;BME280;2591;48.144;15.152;2023-06-22T04:01:03;74991.72;;;-144.65;100.00
5146;BME280;2591;48.144;15.152;2023-06-22T04:03:31;74991.72;;;-144.65;100.00
5146;BME280;2591;48.144;15.152;2023-06-22T04:05:59;74985.59;;;-144.65;100.00
5146;BME280;2591;48.144;15.152;2023-06-22T04:08:27;74977.47;;;-144.65;100.00
5146;BME280;2591;48.144;15.152;2023-06-22T04:10:55;74983.56;;;-144.65;100.00
5146;BME280;2591;48.144;15.152;2023-06-22T04:13:23;74981.53;;;-144.65;100.00
5146;BME280;2591;48.144;15.152;2023-06-22T04:15:52;74977.47;;;-144.65;100.00
5146;BME280;2591;48.144;15.152;2023-06-22T04:18:20;74961.16;;;-144.65;100.00
5146;BME280;2591;48.144;15.152;2023-06-22T04:20:48;74959.13;;;-144.65;100.00
5146;BME280;2591;48.144;15.152;2023-06-22T04:23:16;74946.88;;;-144.65;100.00
5146;BME280;2591;48.144;15.152;2023-06-22T04:25:44;74955.03;;;-144.65;100.00
5146;BME280;2591;48.144;15.152;2023-06-22T04:28:12;74948.91;;;-144.65;100.00
5146;BME280;2591;48.144;15.152;2023-06-22T04:30:41;74932.63;;;-144.65;100.00
5146;BME280;2591;48.144;15.152;2023-06-22T04:33:15;74924.47;;;-144.65;100.00
5146;BME280;2591;48.144;15.152;2023-06-22T04:35:45;74920.38;;;-144.65;100.00
5146;BME280;2591;48.144;15.152;2023-06-22T04:38:13;74912.22;;;-144.65;100.00
5146;BME280;2591;48.144;15.152;2023-06-22T04:40:41;74895.94;;;-144.65;100.00
5146;BME280;2591;48.144;15.152;2023-06-22T04:43:09;74879.63;;;-144.65;100.00
5146;BME280;2591;48.144;15.152;2023-06-22T04:45:37;74875.56;;;-144.65;100.00
5146;BME280;2591;48.144;15.152;2023-06-22T04:48:05;74863.31;;;-144.65;100.00
5146;BME280;2591;48.144;15.152;2023-06-22T04:50:37;74855.16;;;-144.65;100.00
5146;BME280;2591;48.144;15.152;2023-06-22T04:53:05;74849.06;;;-144.65;100.00
5146;BME280;2591;48.144;15.152;2023-06-22T04:55:34;74834.78;;;-144.65;100.00
5146;BME280;2591;48.144;15.152;2023-06-22T04:58:04;74832.75;;;-144.65;100.00
5146;BME280;2591;48.144;15.152;2023-06-22T05:00:32;74830.72;;;-144.65;100.00
5146;BME280;2591;48.144;15.152;2023-06-22T05:03:03;74816.44;;;-144.65;100.00
5146;BME280;2591;48.144;15.152;2023-06-22T05:05:47;74810.34;;;-144.65;100.00
5146;BME280;2591;48.144;15.152;2023-06-22T05:08:15;74798.09;;;-144.65;100.00
5146;BME280;2591;48.144;15.152;2023-06-22T05:10:43;74779.75;;;-144.65;100.00
5146;BME280;2591;48.144;15.152;2023-06-22T05:13:29;74765.50;;;-144.65;100.00
5146;BME280;2591;48.144;15.152;2023-06-22T05:15:57;74761.41;;;-144.65;100.00
5146;BME280;2591;48.144;15.152;2023-06-22T05:18:29;74761.41;;;-144.65;100.00
5146;BME280;2591;48.144;15.152;2023-06-22T05:20:59;74751.22;;;-144.65;100.00
5146;BME280;2591;48.144;15.152;2023-06-22T05:23:27;74749.19;;;-144.65;100.00
5146;BME280;2591;48.144;15.152;2023-06-22T05:25:55;74734.94;;;-144.65;100.00
5146;BME280;2591;48.144;15.152;2023-06-22T05:28:24;74728.81;;;-144.65;100.00
5146;BME280;2591;48.144;15.152;2023-06-22T05:30:53;74718.63;;;-144.65;100.00
5146;BME280;2591;48.144;15.152;2023-06-22T05:33:21;74700.28;;;-144.65;100.00
5146;BME280;2591;48.144;15.152;2023-06-22T05:35:49;74692.13;;;-144.65;100.00
5146;BME280;2591;48.144;15.152;2023-06-22T05:38:18;74677.88;;;-144.65;100.00
5146;BME280;2591;48.144;15.152;2023-06-22T05:40:46;74671.75;;;-144.65;100.00
5146;BME280;2591;48.144;15.152;2023-06-22T05:43:15;74655.44;;;-144.65;100.00
5146;BME280;2591;48.144;15.152;2023-06-22T05:45:42;74643.22;;;-144.65;100.00
5146;BME280;2591;48.144;15.152;2023-06-22T05:48:10;74639.13;;;-144.65;100.00
5146;BME280;2591;48.144;15.152;2023-06-22T05:50:38;74618.75;;;-144.65;100.00
5146;BME280;2591;48.144;15.152;2023-06-22T05:53:06;74606.53;;;-144.65;100.00
5146;BME280;2591;48.144;15.152;2023-06-22T05:55:36;74590.22;;;-144.65;100.00
5146;BME280;2591;48.144;15.152;2023-06-22T05:58:04;74569.84;;;-144.65;100.00
5146;BME280;2591;48.144;15.152;2023-06-22T06:00:32;74549.47;;;-144.65;100.00
5146;BME280;2591;48.144;15.152;2023-06-22T06:03:00;74529.09;;;-144.65;99.60
5146;BME280;2591;48.144;15.152;2023-06-22T06:05:30;74520.94;;;-144.65;96.79
5146;BME280;2591;48.144;15.152;2023-06-22T06:07:59;74504.63;;;-144.65;94.52
5146;BME280;2591;48.144;15.152;2023-06-22T06:10:27;74496.50;;;-144.65;93.23
5146;BME280;2591;48.144;15.152;2023-06-22T06:12:59;74480.19;;;-144.65;94.15
5146;BME280;2591;48.144;15.152;2023-06-22T06:15:29;74476.13;;;-144.65;92.23
5146;BME280;2591;48.144;15.152;2023-06-22T06:17:57;74463.88;;;-144.65;91.93
5146;BME280;2591;48.144;15.152;2023-06-22T06:20:26;74451.66;;;-144.65;90.17
5146;BME280;2591;48.144;15.152;2023-06-22T06:22:55;74441.47;;;-144.65;89.67
5146;BME280;2591;48.144;15.152;2023-06-22T06:25:23;74423.13;;;-144.65;87.98
5146;BME280;2591;48.144;15.152;2023-06-22T06:27:52;74417.00;;;-144.65;88.74
5146;BME280;2591;48.144;15.152;2023-06-22T06:30:23;74406.81;;;-144.65;86.95
5146;BME280;2591;48.144;15.152;2023-06-22T06:32:50;74396.63;;;-144.65;85.44
5146;BME280;2591;48.144;15.152;2023-06-22T06:35:18;74390.53;;;-144.65;86.20
5146;BME280;2591;48.144;15.152;2023-06-22T06:37:47;74388.50;;;-144.65;85.91
5146;BME280;2591;48.144;15.152;2023-06-22T06:40:17;74386.44;;;-144.65;83.82
5146;BME280;2591;48.144;15.152;2023-06-22T06:42:46;74378.28;;;-144.65;84.38
5146;BME280;2591;48.144;15.152;2023-06-22T06:45:16;74374.22;;;-144.65;85.43
5146;BME280;2591;48.144;15.152;2023-06-22T06:47:46;74362.00;;;-144.65;86.37
5146;BME280;2591;48.144;15.152;2023-06-22T06:50:15;74345.69;;;-144.65;86.07
5146;BME280;2591;48.144;15.152;2023-06-22T06:52:43;74337.53;;;-144.65;83.01
5146;BME280;2591;48.144;15.152;2023-06-22T06:55:11;74333.47;;;-144.65;83.07
5146;BME280;2591;48.144;15.152;2023-06-22T06:57:41;74337.53;;;-144.65;82.52
5146;BME280;2591;48.144;15.152;2023-06-22T07:00:11;74331.44;;;-144.65;82.85
5146;BME280;2591;48.144;15.152;2023-06-22T07:02:53;74309.00;;;-144.65;84.00
5146;BME280;2591;48.144;15.152;2023-06-22T07:05:21;74302.91;;;-144.65;82.91
5146;BME280;2591;48.144;15.152;2023-06-22T07:07:48;74302.91;;;-144.65;84.06
5146;BME280;2591;48.144;15.152;2023-06-22T07:10:17;74282.53;;;-144.65;83.87
5146;BME280;2591;48.144;15.152;2023-06-22T07:12:45;74292.72;;;-144.65;80.26
5146;BME280;2591;48.144;15.152;2023-06-22T07:15:13;74298.81;;;-144.65;82.60
5146;BME280;2591;48.144;15.152;2023-06-22T07:17:41;74284.56;;;-144.65;83.21
5146;BME280;2591;48.144;15.152;2023-06-22T07:20:11;74268.25;;;-144.65;83.14
5146;BME280;2591;48.144;15.152;2023-06-22T07:22:40;74256.03;;;-144.65;82.74
5146;BME280;2591;48.144;15.152;2023-06-22T07:25:09;74245.84;;;-144.65;82.81
5146;BME280;2591;48.144;15.152;2023-06-22T07:27:44;74239.72;;;-144.65;82.34
5146;BME280;2591;48.144;15.152;2023-06-22T07:30:13;74229.53;;;-144.65;81.75
5146;BME280;2591;48.144;15.152;2023-06-22T07:32:40;74227.50;;;-144.65;79.21
5146;BME280;2591;48.144;15.152;2023-06-22T07:35:09;74231.59;;;-144.65;80.37
5146;BME280;2591;48.144;15.152;2023-06-22T07:37:38;74213.25;;;-144.65;81.12
5146;BME280;2591;48.144;15.152;2023-06-22T07:40:07;74203.06;;;-144.65;80.35
5146;BME280;2591;48.144;15.152;2023-06-22T07:42:35;74198.97;;;-144.65;78.10
5146;BME280;2591;48.144;15.152;2023-06-22T07:45:04;74198.97;;;-144.65;77.88
5146;BME280;2591;48.144;15.152;2023-06-22T07:47:35;74186.75;;;-144.65;78.75
5146;BME280;2591;48.144;15.152;2023-06-22T07:50:03;74180.63;;;-144.65;78.46
5146;BME280;2591;48.144;15.152;2023-06-22T07:52:32;74178.59;;;-144.65;78.91
5146;BME280;2591;48.144;15.152;2023-06-22T07:55:01;74166.38;;;-144.65;79.94
5146;BME280;2591;48.144;15.152;2023-06-22T07:57:30;74150.06;;;-144.65;80.01
5146;BME280;2591;48.144;15.152;2023-06-22T08:00:01;74131.72;;;-144.65;77.64
5146;BME280;2591;48.144;15.152;2023-06-22T08:02:35;74115.44;;;-144.65;78.29
5146;BME280;2591;48.144;15.152;2023-06-22T08:05:03;74086.91;;;-144.65;78.53
5146;BME280;2591;48.144;15.152;2023-06-22T08:07:53;74088.94;;;-144.65;75.35
5146;BME280;2591;48.144;15.152;2023-06-22T08:10:23;74076.72;;;-144.65;75.60
5146;BME280;2591;48.144;15.152;2023-06-22T08:12:51;74052.28;;;-144.65;74.25
5146;BME280;2591;48.144;15.152;2023-06-22T08:15:19;74029.84;;;-144.65;71.95
5146;BME280;2591;48.144;15.152;2023-06-22T08:17:48;74021.72;;;-144.65;70.41
5146;BME280;2591;48.144;15.152;2023-06-22T08:20:17;74013.56;;;-144.65;70.16
5146;BME280;2591;48.144;15.152;2023-06-22T08:22:44;74005.41;;;-144.65;69.16
5146;BME280;2591;48.144;15.152;2023-06-22T08:25:13;74003.38;;;-144.65;68.73
5146;BME280;2591;48.144;15.152;2023-06-22T08:27:44;73995.22;;;-144.65;68.36
5146;BME280;2591;48.144;15.152;2023-06-22T08:30:14;73991.16;;;-144.65;67.28
5146;BME280;2591;48.144;15.152;2023-06-22T08:32:42;73978.91;;;-144.65;67.11
5146;BME280;2591;48.144;15.152;2023-06-22T08:35:09;73983.00;;;-144.65;66.60
5146;BME280;2591;48.144;15.152;2023-06-22T08:37:38;73978.91;;;-144.65;66.80
5146;BME280;2591;48.144;15.152;2023-06-22T08:40:08;73966.69;;;-144.65;67.50
5146;BME280;2591;48.144;15.152;2023-06-22T08:42:40;73942.25;;;-144.65;66.15
5146;BME280;2591;48.144;15.152;2023-06-22T08:45:10;73938.16;;;-144.65;66.55
5146;BME280;2591;48.144;15.152;2023-06-22T08:47:39;73921.88;;;-144.65;65.61
5146;BME280;2591;48.144;15.152;2023-06-22T08:50:08;73913.72;;;-144.65;66.53
5146;BME280;2591;48.144;15.152;2023-06-22T08:52:37;73934.09;;;-144.65;65.82
5146;BME280;2591;48.144;15.152;2023-06-22T08:55:08;73934.09;;;-144.65;66.15
5146;BME280;2591;48.144;15.152;2023-06-22T08:57:36;73927.97;;;-144.65;66.58
5146;BME280;2591;48.144;15.152;2023-06-22T09:00:07;73917.78;;;-144.65;66.47
5146;BME280;2591;48.144;15.152;2023-06-22T09:02:43;73897.41;;;-144.65;65.72
5146;BME280;2591;48.144;15.152;2023-06-22T09:05:12;73897.41;;;-144.65;65.66
5146;BME280;2591;48.144;15.152;2023-06-22T09:07:40;73881.13;;;-144.65;66.27
5146;BME280;2591;48.144;15.152;2023-06-22T09:10:08;73889.28;;;-144.65;66.15
5146;BME280;2591;48.144;15.152;2023-06-22T09:12:36;73913.72;;;-144.65;66.86
5146;BME280;2591;48.144;15.152;2023-06-22T09:15:05;73934.09;;;-144.65;67.38
5146;BME280;2591;48.144;15.152;2023-06-22T09:17:38;73905.56;;;-144.65;67.78
5146;BME280;2591;48.144;15.152;2023-06-22T09:20:08;73870.94;;;-144.65;66.67
5146;BME280;2591;48.144;15.152;2023-06-22T09:22:37;73856.66;;;-144.65;66.99
5146;BME280;2591;48.144;15.152;2023-06-22T09:25:06;73860.75;;;-144.65;66.48
5146;BME280;2591;48.144;15.152;2023-06-22T09:27:34;73842.41;;;-144.65;67.79
5146;BME280;2591;48.144;15.152;2023-06-22T09:30:02;73811.84;;;-144.65;66.73
5146;BME280;2591;48.144;15.152;2023-06-22T09:32:31;73801.66;;;-144.65;66.05
5146;BME280;2591;48.144;15.152;2023-06-22T09:35:02;73789.44;;;-144.65;65.32
5146;BME280;2591;48.144;15.152;2023-06-22T09:37:31;73803.69;;;-144.65;65.84
5146;BME280;2591;48.144;15.152;2023-06-22T09:39:59;73797.59;;;-144.65;66.24
5146;BME280;2591;48.144;15.152;2023-06-22T09:42:27;73771.09;;;-144.65;65.88
5146;BME280;2591;48.144;15.152;2023-06-22T09:44:55;73742.56;;;-144.65;65.62
5146;BME280;2591;48.144;15.152;2023-06-22T09:47:23;73720.16;;;-144.65;64.66
5146;BME280;2591;48.144;15.152;2023-06-22T09:49:51;73709.97;;;-144.65;64.29
5146;BME280;2591;48.144;15.152;2023-06-22T09:52:19;73709.97;;;-144.65;63.57
5146;BME280;2591;48.144;15.152;2023-06-22T09:54:52;73722.19;;;-144.65;64.92
5146;BME280;2591;48.144;15.152;2023-06-22T09:57:20;73722.19;;;-144.65;63.91
5146;BME280;2591;48.144;15.152;2023-06-22T09:59:48;73709.97;;;-144.65;63.67
5146;BME280;2591;48.144;15.152;2023-06-22T10:02:16;73697.75;;;-144.65;63.61
5146;BME280;2591;48.144;15.152;2023-06-22T10:04:45;73677.38;;;-144.65;63.52
5146;BME280;2591;48.144;15.152;2023-06-22T10:07:13;73636.63;;;-144.65;62.42
5146;BME280;2591;48.144;15.152;2023-06-22T10:09:41;73632.56;;;-144.65;61.97
5146;BME280;2591;48.144;15.152;2023-06-22T10:12:11;73630.53;;;-144.65;62.09
5146;BME280;2591;48.144;15.152;2023-06-22T10:14:39;73608.09;;;-144.65;62.15
5146;BME280;2591;48.144;15.152;2023-06-22T10:17:07;73587.72;;;-144.65;60.44
5146;BME280;2591;48.144;15.152;2023-06-22T10:19:35;73606.06;;;-144.65;62.18
5146;BME280;2591;48.144;15.152;2023-06-22T10:22:04;73575.50;;;-144.65;61.21
5146;BME280;2591;48.144;15.152;2023-06-22T10:24:32;73551.06;;;-144.65;61.95
5146;BME280;2591;48.144;15.152;2023-06-22T10:27:00;73530.69;;;-144.65;60.75
5146;BME280;2591;48.144;15.152;2023-06-22T10:29:29;73559.22;;;-144.65;59.33
5146;BME280;2591;48.144;15.152;2023-06-22T10:31:57;73599.97;;;-144.65;60.77
5146;BME280;2591;48.144;15.152;2023-06-22T10:34:25;73577.53;;;-144.65;60.67
5146;BME280;2591;48.144;15.152;2023-06-22T10:36:53;73591.81;;;-144.65;59.89
5146;BME280;2591;48.144;15.152;2023-06-22T10:39:21;73599.97;;;-144.65;60.22
5146;BME280;2591;48.144;15.152;2023-06-22T10:41:49;73608.09;;;-144.65;59.97
5146;BME280;2591;48.144;15.152;2023-06-22T10:44:16;73587.72;;;-144.65;59.77
5146;BME280;2591;48.144;15.152;2023-06-22T10:46:46;73587.72;;;-144.65;59.51
5146;BME280;2591;48.144;15.152;2023-06-22T10:49:14;73571.44;;;-144.65;59.75
5146;BME280;2591;48.144;15.152;2023-06-22T10:51:41;73567.34;;;-144.65;60.36
5146;BME280;2591;48.144;15.152;2023-06-22T10:54:09;73536.81;;;-144.65;59.63
5146;BME280;2591;48.144;15.152;2023-06-22T10:56:40;73547.00;;;-144.65;59.84
5146;BME280;2591;48.144;15.152;2023-06-22T10:59:08;73555.13;;;-144.65;58.92
5146;BME280;2591;48.144;15.152;2023-06-22T11:01:36;73563.28;;;-144.65;59.30
5146;BME280;2591;48.144;15.152;2023-06-22T11:04:05;73561.25;;;-144.65;60.00
5146;BME280;2591;48.144;15.152;2023-06-22T11:06:33;73549.03;;;-144.65;60.02
5146;BME280;2591;48.144;15.152;2023-06-22T11:09:01;73538.84;;;-144.65;59.77
5146;BME280;2591;48.144;15.152;2023-06-22T11:11:50;73534.75;;;-144.65;60.15
5146;BME280;2591;48.144;15.152;2023-06-22T11:14:20;73512.34;;;-144.65;59.71
5146;BME280;2591;48.144;15.152;2023-06-22T11:16:49;73514.41;;;-144.65;59.01
5146;BME280;2591;48.144;15.152;2023-06-22T11:19:18;73557.16;;;-144.65;59.65
5146;BME280;2591;48.144;15.152;2023-06-22T11:21:46;73559.22;;;-144.65;59.20
5146;BME280;2591;48.144;15.152;2023-06-22T11:24:14;73559.22;;;-144.65;60.59
5146;BME280;2591;48.144;15.152;2023-06-22T11:26:42;73526.63;;;-144.65;60.37
5146;BME280;2591;48.144;15.152;2023-06-22T11:29:10;73530.69;;;-144.65;59.52
5146;BME280;2591;48.144;15.152;2023-06-22T11:31:53;73518.47;;;-144.65;59.42
5146;BME280;2591;48.144;15.152;2023-06-22T11:34:22;73514.41;;;-144.65;59.79
5146;BME280;2591;48.144;15.152;2023-06-22T11:36:51;73489.94;;;-144.65;59.73
5146;BME280;2591;48.144;15.152;2023-06-22T11:39:19;73473.66;;;-144.65;59.11
5146;BME280;2591;48.144;15.152;2023-06-22T11:42:05;73461.41;;;-144.65;58.61
5146;BME280;2591;48.144;15.152;2023-06-22T11:44:33;73463.47;;;-144.65;58.46
5146;BME280;2591;48.144;15.152;2023-06-22T11:47:01;73457.34;;;-144.65;58.31
5146;BME280;2591;48.144;15.152;2023-06-22T11:49:32;73461.41;;;-144.65;58.67
5146;BME280;2591;48.144;15.152;2023-06-22T11:52:00;73436.97;;;-144.65;59.19
5146;BME280;2591;48.144;15.152;2023-06-22T11:54:28;73408.47;;;-144.65;58.13
5146;BME280;2591;48.144;15.152;2023-06-22T11:56:55;73412.53;;;-144.65;58.39
5146;BME280;2591;48.144;15.152;2023-06-22T11:59:24;73412.53;;;-144.65;58.00
5146;BME280;2591;48.144;15.152;2023-06-22T12:01:52;73447.16;;;-144.65;57.93
5146;BME280;2591;48.144;15.152;2023-06-22T12:04:20;73439.00;;;-144.65;58.72
5146;BME280;2591;48.144;15.152;2023-06-22T12:06:50;73420.69;;;-144.65;59.29
5146;BME280;2591;48.144;15.152;2023-06-22T12:09:18;73396.22;;;-144.65;58.42
5146;BME280;2591;48.144;15.152;2023-06-22T12:11:46;73400.31;;;-144.65;58.75
5146;BME280;2591;48.144;15.152;2023-06-22T12:14:14;73412.53;;;-144.65;58.84
5146;BME280;2591;48.144;15.152;2023-06-22T12:16:42;73408.47;;;-144.65;58.72
5146;BME280;2591;48.144;15.152;2023-06-22T12:19:11;73416.59;;;-144.65;59.07
5146;BME280;2591;48.144;15.152;2023-06-22T12:21:39;73424.75;;;-144.65;58.35
5146;BME280;2591;48.144;15.152;2023-06-22T12:24:08;73436.97;;;-144.65;59.25
5146;BME280;2591;48.144;15.152;2023-06-22T12:26:36;73445.13;;;-144.65;60.16
5146;BME280;2591;48.144;15.152;2023-06-22T12:29:04;73426.78;;;-144.65;59.45
5146;BME280;2591;48.144;15.152;2023-06-22T12:31:32;73408.47;;;-144.65;60.10
5146;BME280;2591;48.144;15.152;2023-06-22T12:34:00;73392.16;;;-144.65;59.66
5146;BME280;2591;48.144;15.152;2023-06-22T12:36:28;73379.94;;;-144.65;59.01
5146;BME280;2591;48.144;15.152;2023-06-22T12:38:56;73379.94;;;-144.65;59.10
5146;BME280;2591;48.144;15.152;2023-06-22T12:41:26;73384.00;;;-144.65;59.23
5146;BME280;2591;48.144;15.152;2023-06-22T12:43:54;73388.09;;;-144.65;59.52
5146;BME280;2591;48.144;15.152;2023-06-22T12:46:21;73388.09;;;-144.65;58.69
5146;BME280;2591;48.144;15.152;2023-06-22T12:48:49;73394.19;;;-144.65;59.10
5146;BME280;2591;48.144;15.152;2023-06-22T12:51:21;73400.31;;;-144.65;58.80
5146;BME280;2591;48.144;15.152;2023-06-22T12:53:49;73379.94;;;-144.65;59.12
5146;BME280;2591;48.144;15.152;2023-06-22T12:56:18;73371.78;;;-144.65;59.38